createdAt,value
2017-09-16T00:00:27.014Z,97580.41
2017-09-16T00:02:56.093Z,97572.40
2017-09-16T00:05:25.189Z,97583.30
2017-09-16T00:07:54.302Z,97577.34
2017-09-16T00:10:23.393Z,97578.28
2017-09-16T00:12:52.486Z,97577.75
2017-09-16T00:15:21.595Z,97587.48
2017-09-16T00:17:50.678Z,97580.35
2017-09-16T00:20:19.778Z,97578.05
2017-09-16T00:22:48.895Z,97568.80
2017-09-16T00:25:17.215Z,97563.18
2017-09-16T00:27:45.566Z,97561.36
2017-09-16T00:30:13.887Z,97567.70
2017-09-16T00:32:42.206Z,97571.50
2017-09-16T00:35:11.317Z,97572.88
2017-09-16T00:37:39.637Z,97574.40
2017-09-16T00:40:08.746Z,97576.00
2017-09-16T00:42:37.074Z,97577.56
2017-09-16T00:45:05.393Z,97576.31
2017-09-16T00:47:33.742Z,97581.89
2017-09-16T00:50:02.059Z,97581.38
2017-09-16T00:52:30.378Z,97581.31
2017-09-16T00:54:59.876Z,97586.92
2017-09-16T00:57:29.068Z,97587.58
2017-09-16T00:59:58.475Z,97587.67
2017-09-16T01:02:27.597Z,97584.69
2017-09-16T01:04:56.707Z,97591.08
2017-09-16T01:07:25.081Z,97593.60
2017-09-16T01:09:53.430Z,97586.49
2017-09-16T01:12:21.774Z,97587.07
2017-09-16T01:14:50.100Z,97587.42
2017-09-16T01:17:19.206Z,97580.18
2017-09-16T01:19:48.296Z,97579.23
2017-09-16T01:22:17.395Z,97583.49
2017-09-16T01:24:46.520Z,97580.57
2017-09-16T01:27:14.856Z,97582.39
2017-09-16T01:29:43.186Z,97575.96
2017-09-16T01:32:11.543Z,97571.55
2017-09-16T01:34:40.630Z,97569.56
2017-09-16T01:37:09.714Z,97565.57
2017-09-16T01:39:38.062Z,97567.88
2017-09-16T01:42:06.377Z,97575.47
2017-09-16T01:44:34.690Z,97573.98
2017-09-16T01:47:03.025Z,97571.75
2017-09-16T01:49:31.338Z,97572.88
2017-09-16T01:51:59.745Z,97573.64
2017-09-16T01:54:28.062Z,97581.73
2017-09-16T01:56:56.378Z,97583.05
2017-09-16T01:59:25.489Z,97581.91
2017-09-16T02:01:54.673Z,97579.05
2017-09-16T02:04:23.750Z,97578.09
2017-09-16T02:06:52.087Z,97573.97
2017-09-16T02:09:20.401Z,97581.53
2017-09-16T02:11:48.751Z,97583.52
2017-09-16T02:14:17.844Z,97578.33
2017-09-16T02:16:46.150Z,97580.42
2017-09-16T02:19:14.502Z,97582.30
2017-09-16T02:21:42.817Z,97578.11
2017-09-16T02:24:11.122Z,97580.91
2017-09-16T02:26:40.227Z,97577.42
2017-09-16T02:29:09.299Z,97575.83
2017-09-16T02:31:37.684Z,97573.48
2017-09-16T02:34:05.983Z,97567.44
2017-09-16T02:36:35.058Z,97563.10
2017-09-16T02:39:04.189Z,97563.88
2017-09-16T02:41:32.506Z,97564.20
2017-09-16T02:44:00.867Z,97561.17
2017-09-16T02:46:29.192Z,97560.75
2017-09-16T02:48:57.511Z,97563.44
2017-09-16T02:51:25.856Z,97566.14
2017-09-16T02:53:54.170Z,97558.88
2017-09-16T02:56:22.509Z,97560.66
2017-09-16T02:58:50.827Z,97559.77
2017-09-16T03:01:19.169Z,97560.67
2017-09-16T03:03:47.487Z,97559.38
2017-09-16T03:06:15.804Z,97564.69
2017-09-16T03:08:44.145Z,97562.39
2017-09-16T03:11:12.453Z,97562.80
2017-09-16T03:13:40.766Z,97557.64
2017-09-16T03:16:09.106Z,97554.98
2017-09-16T03:18:37.422Z,97560.20
2017-09-16T03:21:05.764Z,97565.07
2017-09-16T03:23:34.074Z,97562.88
2017-09-16T03:26:02.387Z,97558.31
2017-09-16T03:28:31.487Z,97554.81
2017-09-16T03:31:00.566Z,97556.09
2017-09-16T03:33:29.676Z,97553.52
2017-09-16T03:35:58.762Z,97552.60
2017-09-16T03:38:27.907Z,97557.28
2017-09-16T03:40:56.254Z,97555.06
2017-09-16T03:43:25.326Z,97556.38
2017-09-16T03:45:53.629Z,97558.62
2017-09-16T03:48:22.741Z,97549.16
2017-09-16T03:50:51.066Z,97555.52
2017-09-16T03:53:19.387Z,97546.71
2017-09-16T03:55:48.491Z,97551.44
2017-09-16T03:58:16.821Z,97557.50
2017-09-16T04:00:45.126Z,97553.97
2017-09-16T04:03:13.462Z,97548.56
2017-09-16T04:05:41.770Z,97553.05
2017-09-16T04:08:10.087Z,97550.95
2017-09-16T04:10:39.185Z,97558.05
2017-09-16T04:13:08.263Z,97552.27
2017-09-16T04:15:36.570Z,97562.52
2017-09-16T04:18:04.915Z,97554.22
2017-09-16T04:20:33.250Z,97559.36
2017-09-16T04:23:01.562Z,97554.65
2017-09-16T04:25:29.908Z,97561.23
2017-09-16T04:27:58.220Z,97557.22
2017-09-16T04:30:26.530Z,97558.05
2017-09-16T04:32:55.630Z,97557.13
2017-09-16T04:35:24.705Z,97564.72
2017-09-16T04:37:53.010Z,97564.63
2017-09-16T04:40:22.138Z,97558.62
2017-09-16T04:42:50.441Z,97566.22
2017-09-16T04:45:18.747Z,97565.72
2017-09-16T04:47:47.088Z,97565.66
2017-09-16T04:50:15.405Z,97568.19
2017-09-16T04:52:43.718Z,97566.87
2017-09-16T04:55:12.050Z,97571.69
2017-09-16T04:57:40.363Z,97572.90
2017-09-16T05:00:09.445Z,97571.59
2017-09-16T05:02:37.786Z,97564.77
2017-09-16T05:05:06.100Z,97571.92
2017-09-16T05:07:34.423Z,97561.84
2017-09-16T05:10:02.770Z,97566.00
2017-09-16T05:12:31.846Z,97572.38
2017-09-16T05:15:00.155Z,97571.24
2017-09-16T05:17:29.250Z,97577.59
2017-09-16T05:19:58.318Z,97569.48
2017-09-16T05:22:26.650Z,97570.28
2017-09-16T05:24:54.955Z,97575.45
2017-09-16T05:27:23.305Z,97573.84
2017-09-16T05:29:51.634Z,97576.45
2017-09-16T05:32:20.207Z,97573.89
2017-09-16T05:34:48.544Z,97574.81
2017-09-16T05:37:16.862Z,97574.28
2017-09-16T05:39:45.200Z,97570.90
2017-09-16T05:42:14.274Z,97575.09
2017-09-16T05:44:42.590Z,97572.91
2017-09-16T05:47:10.938Z,97572.05
2017-09-16T05:49:40.010Z,97571.94
2017-09-16T05:52:08.346Z,97566.27
2017-09-16T05:54:36.662Z,97569.61
2017-09-16T05:57:04.970Z,97570.83
2017-09-16T05:59:33.401Z,97567.53
2017-09-16T06:02:01.710Z,97571.80
2017-09-16T06:04:30.043Z,97573.50
2017-09-16T06:06:58.357Z,97574.52
2017-09-16T06:09:26.686Z,97571.09
2017-09-16T06:11:55.794Z,97574.84
2017-09-16T06:14:24.102Z,97582.50
2017-09-16T06:16:52.414Z,97581.27
2017-09-16T06:19:20.751Z,97579.94
2017-09-16T06:21:49.073Z,97582.28
2017-09-16T06:24:17.382Z,97580.58
2017-09-16T06:26:46.483Z,97583.91
2017-09-16T06:29:14.802Z,97586.80
2017-09-16T06:31:43.117Z,97589.30
2017-09-16T06:34:11.455Z,97587.31
2017-09-16T06:36:39.779Z,97598.52
2017-09-16T06:39:08.094Z,97596.91
2017-09-16T06:41:36.450Z,97603.75
2017-09-16T06:44:05.530Z,97604.38
2017-09-16T06:46:33.836Z,97604.38
2017-09-16T06:49:02.935Z,97605.70
2017-09-16T06:51:32.034Z,97608.27
2017-09-16T06:54:01.106Z,97606.95
2017-09-16T06:56:29.417Z,97610.75
2017-09-16T06:58:57.755Z,97598.84
2017-09-16T07:01:26.061Z,97606.50
2017-09-16T07:03:55.147Z,97608.52
2017-09-16T07:06:23.494Z,97614.12
2017-09-16T07:08:51.797Z,97613.19
2017-09-16T07:11:20.102Z,97609.42
2017-09-16T07:13:49.199Z,97611.56
2017-09-16T07:16:18.286Z,97622.47
2017-09-16T07:18:47.358Z,97625.00
2017-09-16T07:21:15.704Z,97626.59
2017-09-16T07:23:44.020Z,97624.22
2017-09-16T07:26:12.342Z,97631.35
2017-09-16T07:28:40.677Z,97627.19
2017-09-16T07:31:08.985Z,97633.63
2017-09-16T07:33:38.066Z,97641.88
2017-09-16T07:36:06.404Z,97632.81
2017-09-16T07:38:34.718Z,97639.95
2017-09-16T07:41:03.030Z,97637.87
2017-09-16T07:43:32.143Z,97635.36
2017-09-16T07:46:00.469Z,97644.31
2017-09-16T07:48:28.820Z,97645.08
2017-09-16T07:50:57.127Z,97653.89
2017-09-16T07:53:25.435Z,97652.20
2017-09-16T07:55:54.550Z,97650.58
2017-09-16T07:58:22.858Z,97653.42
2017-09-16T08:00:51.166Z,97660.13
2017-09-16T08:03:19.503Z,97657.03
2017-09-16T08:05:47.811Z,97651.39
2017-09-16T08:08:16.161Z,97656.37
2017-09-16T08:10:44.472Z,97653.27
2017-09-16T08:13:12.785Z,97659.36
2017-09-16T08:15:41.891Z,97660.50
2017-09-16T08:18:10.989Z,97659.91
2017-09-16T08:20:40.074Z,97663.43
2017-09-16T08:23:08.431Z,97659.44
2017-09-16T08:25:36.744Z,97661.45
2017-09-16T08:28:05.839Z,97660.02
2017-09-16T08:30:35.425Z,97662.66
2017-09-16T08:33:03.766Z,97665.23
2017-09-16T08:35:32.075Z,97661.97
2017-09-16T08:38:00.434Z,97660.97
2017-09-16T08:40:28.754Z,97663.41
2017-09-16T08:42:57.074Z,97665.89
2017-09-16T08:45:25.419Z,97668.83
2017-09-16T08:47:54.514Z,97661.22
2017-09-16T08:50:22.830Z,97660.95
2017-09-16T08:52:51.192Z,97668.25
2017-09-16T08:55:20.274Z,97664.86
2017-09-16T08:57:48.654Z,97662.81
2017-09-16T09:00:17.054Z,97663.66
2017-09-16T09:02:46.154Z,97666.91
2017-09-16T09:05:15.291Z,97661.99
2017-09-16T09:07:43.638Z,97666.08
2017-09-16T09:10:12.759Z,97667.66
2017-09-16T09:12:41.113Z,97666.66
2017-09-16T09:15:09.599Z,97675.09
2017-09-16T09:17:38.698Z,97672.48
2017-09-16T09:20:08.069Z,97676.20
2017-09-16T09:22:36.441Z,97677.31
2017-09-16T09:25:04.761Z,97680.30
2017-09-16T09:27:33.915Z,97677.68
2017-09-16T09:30:02.287Z,97676.42
2017-09-16T09:32:30.612Z,97676.48
2017-09-16T09:34:59.728Z,97679.44
2017-09-16T09:37:28.044Z,97678.20
2017-09-16T09:39:56.443Z,97677.14
2017-09-16T09:42:24.758Z,97680.38
2017-09-16T09:44:53.887Z,97676.35
2017-09-16T09:47:22.228Z,97676.02
2017-09-16T09:49:51.314Z,97679.28
2017-09-16T09:52:20.423Z,97673.22
2017-09-16T09:54:49.505Z,97671.39
2017-09-16T09:57:17.832Z,97672.03
2017-09-16T09:59:46.174Z,97673.18
2017-09-16T10:02:15.264Z,97670.62
2017-09-16T10:04:44.355Z,97674.59
2017-09-16T10:07:12.707Z,97664.73
2017-09-16T10:09:41.127Z,97664.56
2017-09-16T10:12:10.273Z,97667.62
2017-09-16T10:14:38.622Z,97668.31
2017-09-16T10:17:07.715Z,97665.11
2017-09-16T10:19:36.809Z,97664.69
2017-09-16T10:22:05.959Z,97664.20
2017-09-16T10:24:34.429Z,97662.31
2017-09-16T10:27:03.032Z,97657.14
2017-09-16T10:29:31.400Z,97663.70
2017-09-16T10:31:59.723Z,97658.31
2017-09-16T10:34:28.257Z,97661.81
2017-09-16T10:36:56.602Z,97661.92
2017-09-16T10:39:25.698Z,97662.04
2017-09-16T10:41:54.815Z,97661.03
2017-09-16T10:44:23.153Z,97659.36
2017-09-16T10:46:51.562Z,97669.08
2017-09-16T10:49:20.671Z,97664.48
2017-09-16T10:51:49.147Z,97662.93
2017-09-16T10:54:19.920Z,97662.98
2017-09-16T10:56:48.393Z,97656.34
2017-09-16T10:59:16.882Z,97658.19
2017-09-16T11:01:45.251Z,97670.33
2017-09-16T11:04:13.734Z,97667.92
2017-09-16T11:06:42.070Z,97667.57
2017-09-16T11:09:10.402Z,97667.48
2017-09-16T11:11:38.718Z,97655.86
2017-09-16T11:14:07.266Z,97662.42
2017-09-16T11:16:35.744Z,97662.14
2017-09-16T11:19:04.189Z,97665.45
2017-09-16T11:21:33.299Z,97664.72
2017-09-16T11:24:02.503Z,97656.84
2017-09-16T11:26:31.590Z,97660.35
2017-09-16T11:29:00.792Z,97658.51
2017-09-16T11:31:30.338Z,97654.51
2017-09-16T11:33:58.851Z,97650.36
2017-09-16T11:36:27.358Z,97650.39
2017-09-16T11:38:56.522Z,97654.67
2017-09-16T11:41:24.975Z,97650.12
2017-09-16T11:43:53.326Z,97648.13
2017-09-16T11:46:22.426Z,97649.91
2017-09-16T11:48:51.606Z,97656.38
2017-09-16T11:51:19.951Z,97649.58
2017-09-16T11:53:48.276Z,97656.56
2017-09-16T11:56:16.606Z,97655.27
2017-09-16T11:58:44.952Z,97651.14
2017-09-16T12:01:14.056Z,97650.30
2017-09-16T12:03:43.169Z,97642.30
2017-09-16T12:06:11.573Z,97636.13
2017-09-16T12:08:39.890Z,97637.27
2017-09-16T12:11:08.987Z,97630.03
2017-09-16T12:13:38.103Z,97631.35
2017-09-16T12:16:07.189Z,97627.94
2017-09-16T12:18:36.276Z,97624.22
2017-09-16T12:21:04.628Z,97624.30
2017-09-16T12:23:32.948Z,97622.86
2017-09-16T12:26:02.040Z,97620.02
2017-09-16T12:28:30.389Z,97620.14
2017-09-16T12:30:58.707Z,97616.50
2017-09-16T12:33:27.803Z,97614.41
2017-09-16T12:35:56.919Z,97615.84
2017-09-16T12:38:26.039Z,97609.72
2017-09-16T12:40:54.359Z,97610.80
2017-09-16T12:43:22.733Z,97607.66
2017-09-16T12:45:51.062Z,97598.29
2017-09-16T12:48:19.383Z,97609.79
2017-09-16T12:50:47.755Z,97600.09
2017-09-16T12:53:16.075Z,97598.31
2017-09-16T12:55:44.400Z,97590.45
2017-09-16T12:58:12.749Z,97590.22
2017-09-16T13:00:41.857Z,97596.53
2017-09-16T13:03:10.943Z,97597.24
2017-09-16T13:05:40.076Z,97593.34
2017-09-16T13:08:08.403Z,97590.01
2017-09-16T13:10:36.732Z,97589.66
2017-09-16T13:13:05.071Z,97587.22
2017-09-16T13:15:34.159Z,97588.67
2017-09-16T13:18:02.478Z,97586.69
2017-09-16T13:20:30.822Z,97589.51
2017-09-16T13:22:59.136Z,97588.86
2017-09-16T13:25:27.458Z,97589.23
2017-09-16T13:27:55.809Z,97591.31
2017-09-16T13:30:24.123Z,97587.88
2017-09-16T13:32:53.220Z,97585.98
2017-09-16T13:35:21.574Z,97581.92
2017-09-16T13:37:49.911Z,97580.68
2017-09-16T13:40:19.011Z,97578.41
2017-09-16T13:42:47.387Z,97574.72
2017-09-16T13:45:16.480Z,97569.08
2017-09-16T13:47:45.574Z,97562.91
2017-09-16T13:50:13.918Z,97564.33
2017-09-16T13:52:42.246Z,97566.33
2017-09-16T13:55:11.334Z,97561.11
2017-09-16T13:57:40.455Z,97566.66
2017-09-16T14:00:09.541Z,97557.62
2017-09-16T14:02:38.630Z,97567.53
2017-09-16T14:05:07.743Z,97570.07
2017-09-16T14:07:36.825Z,97566.82
2017-09-16T14:10:05.914Z,97566.02
2017-09-16T14:12:34.284Z,97571.06
2017-09-16T14:15:02.603Z,97568.38
2017-09-16T14:17:31.003Z,97571.39
2017-09-16T14:19:59.356Z,97562.27
2017-09-16T14:22:28.447Z,97569.20
2017-09-16T14:24:57.598Z,97571.89
2017-09-16T14:27:25.942Z,97560.86
2017-09-16T14:29:55.023Z,97570.03
2017-09-16T14:32:24.108Z,97568.53
2017-09-16T14:34:52.451Z,97565.52
2017-09-16T14:37:20.765Z,97564.22
2017-09-16T14:39:49.078Z,97564.39
2017-09-16T14:42:17.422Z,97570.41
2017-09-16T14:44:45.738Z,97571.22
2017-09-16T14:47:14.102Z,97573.97
2017-09-16T14:49:43.202Z,97565.64
2017-09-16T14:52:12.283Z,97571.16
2017-09-16T14:54:40.631Z,97570.52
2017-09-16T14:57:08.951Z,97577.99
2017-09-16T14:59:38.042Z,97575.81
2017-09-16T15:02:06.388Z,97565.23
2017-09-16T15:04:34.707Z,97572.22
2017-09-16T15:07:03.823Z,97567.55
2017-09-16T15:09:32.914Z,97567.48
2017-09-16T15:12:01.995Z,97563.57
2017-09-16T15:14:30.344Z,97560.75
2017-09-16T15:16:58.678Z,97570.45
2017-09-16T15:19:27.814Z,97569.70
2017-09-16T15:21:56.130Z,97570.11
2017-09-16T15:24:24.462Z,97573.00
2017-09-16T15:26:52.809Z,97568.88
2017-09-16T15:29:21.895Z,97573.42
2017-09-16T15:31:50.215Z,97570.09
2017-09-16T15:34:18.601Z,97568.37
2017-09-16T15:36:46.928Z,97562.81
2017-09-16T15:39:15.246Z,97568.72
2017-09-16T15:41:43.587Z,97569.94
2017-09-16T15:44:11.898Z,97562.16
2017-09-16T15:46:40.222Z,97563.78
2017-09-16T15:49:08.562Z,97568.25
2017-09-16T15:51:36.889Z,97572.53
2017-09-16T15:54:05.243Z,97589.59
2017-09-16T15:56:33.563Z,97583.95
2017-09-16T15:59:01.886Z,97581.02
2017-09-16T16:01:30.227Z,97586.61
2017-09-16T16:03:58.554Z,97598.92
2017-09-16T16:06:26.870Z,97596.51
2017-09-16T16:08:55.211Z,97604.56
2017-09-16T16:11:23.532Z,97602.22
2017-09-16T16:13:51.878Z,97610.13
2017-09-16T16:16:20.260Z,97611.56
2017-09-16T16:18:48.575Z,97609.66
2017-09-16T16:21:16.917Z,97611.05
2017-09-16T16:39:01.539Z,97608.67
2017-09-16T16:41:29.860Z,97612.45
2017-09-16T16:43:58.185Z,97614.47
2017-09-16T16:46:26.530Z,97612.98
2017-09-16T16:48:54.842Z,97621.83
2017-09-16T16:51:23.166Z,97622.55
2017-09-16T16:53:52.288Z,97630.33
2017-09-16T16:56:20.611Z,97636.22
2017-09-16T16:58:48.931Z,97642.66
2017-09-16T17:01:17.293Z,97642.77
2017-09-16T17:03:46.378Z,97635.59
2017-09-16T17:06:14.704Z,97641.80
2017-09-16T17:08:43.048Z,97637.94
2017-09-16T17:11:12.132Z,97642.08
2017-09-16T17:13:40.447Z,97646.23
2017-09-16T17:16:08.800Z,97650.25
2017-09-16T17:18:37.884Z,97646.75
2017-09-16T17:21:06.194Z,97649.34
2017-09-16T17:23:35.306Z,97651.09
2017-09-16T17:26:03.619Z,97651.29
2017-09-16T17:28:31.942Z,97652.97
2017-09-16T17:31:01.051Z,97651.34
2017-09-16T17:33:30.146Z,97647.70
2017-09-16T17:35:59.230Z,97655.22
2017-09-16T17:38:28.334Z,97652.75
2017-09-16T17:40:57.423Z,97654.35
2017-09-16T17:43:25.739Z,97664.11
2017-09-16T17:45:54.078Z,97660.78
2017-09-16T17:48:22.399Z,97662.53
2017-09-16T17:50:50.739Z,97669.66
2017-09-16T17:53:19.834Z,97668.21
2017-09-16T17:55:48.156Z,97676.83
2017-09-16T17:58:16.515Z,97677.59
2017-09-16T18:00:44.850Z,97675.66
2017-09-16T18:03:13.202Z,97686.25
2017-09-16T18:05:41.514Z,97669.23
2017-09-16T18:08:09.826Z,97688.94
2017-09-16T18:10:38.930Z,97692.31
2017-09-16T18:13:07.248Z,97694.53
2017-09-16T18:15:35.586Z,97693.61
2017-09-16T18:18:04.702Z,97693.05
2017-09-16T18:20:33.030Z,97695.13
2017-09-16T18:23:01.355Z,97696.33
2017-09-16T18:25:29.698Z,97696.25
2017-09-16T18:27:58.014Z,97694.97
2017-09-16T18:30:26.340Z,97702.27
2017-09-16T18:32:54.687Z,97697.16
2017-09-16T18:35:23.002Z,97703.50
2017-09-16T18:37:51.354Z,97703.02
2017-09-16T18:40:19.680Z,97703.09
2017-09-16T18:42:47.998Z,97700.66
2017-09-16T18:45:16.340Z,97700.93
2017-09-16T18:47:44.668Z,97702.44
2017-09-16T18:50:12.998Z,97710.23
2017-09-16T18:52:41.342Z,97705.38
2017-09-16T18:55:09.667Z,97709.91
2017-09-16T18:57:38.766Z,97709.01
2017-09-16T19:00:07.875Z,97711.15
2017-09-16T19:02:36.966Z,97708.66
2017-09-16T19:05:06.050Z,97709.66
2017-09-16T19:07:34.390Z,97718.49
2017-09-16T19:10:02.712Z,97716.92
2017-09-16T19:12:31.026Z,97717.67
2017-09-16T19:14:59.371Z,97724.08
2017-09-16T19:17:27.702Z,97722.27
2017-09-16T19:19:56.015Z,97726.70
2017-09-16T19:22:24.363Z,97726.19
2017-09-16T19:24:52.686Z,97727.17
2017-09-16T19:27:21.021Z,97729.38
2017-09-16T19:29:49.363Z,97732.81
2017-09-16T19:32:18.459Z,97729.56
2017-09-16T19:34:47.535Z,97729.19
2017-09-16T19:37:15.874Z,97730.70
2017-09-16T19:39:44.188Z,97733.38
2017-09-16T19:42:12.503Z,97733.84
2017-09-16T19:44:41.615Z,97726.69
2017-09-16T19:47:09.940Z,97730.99
2017-09-16T19:49:38.291Z,97733.39
2017-09-16T19:52:06.639Z,97736.41
2017-09-16T19:54:35.737Z,97731.31
2017-09-16T19:57:04.826Z,97727.97
2017-09-16T19:59:33.950Z,97738.64
2017-09-16T20:02:02.267Z,97732.98
2017-09-16T20:04:30.586Z,97739.45
2017-09-16T20:06:59.694Z,97735.38
2017-09-16T20:09:28.775Z,97739.94
2017-09-16T20:11:57.095Z,97739.52
2017-09-16T20:14:25.435Z,97736.91
2017-09-16T20:16:54.534Z,97735.97
2017-09-16T20:19:23.628Z,97735.58
2017-09-16T20:21:52.757Z,97735.14
2017-09-16T20:24:21.071Z,97744.59
2017-09-16T20:26:49.393Z,97742.47
2017-09-16T20:29:18.499Z,97749.06
2017-09-16T20:31:47.578Z,97752.06
2017-09-16T20:34:15.894Z,97748.89
2017-09-16T20:36:44.233Z,97752.58
2017-09-16T20:39:12.542Z,97753.80
2017-09-16T20:41:41.648Z,97755.84
2017-09-16T20:44:10.049Z,97755.53
2017-09-16T20:46:38.366Z,97757.23
2017-09-16T20:49:06.746Z,97760.63
2017-09-16T20:51:35.062Z,97759.31
2017-09-16T20:54:04.144Z,97757.67
2017-09-16T20:56:33.223Z,97761.53
2017-09-16T20:59:01.558Z,97761.67
2017-09-16T21:01:29.874Z,97757.58
2017-09-16T21:03:58.208Z,97756.16
2017-09-16T21:06:26.515Z,97764.59
2017-09-16T21:08:54.818Z,97765.86
2017-09-16T21:11:23.158Z,97767.09
2017-09-16T21:13:51.477Z,97770.48
2017-09-16T21:16:19.790Z,97774.35
2017-09-16T21:18:48.894Z,97770.48
2017-09-16T21:21:17.224Z,97775.09
2017-09-16T21:23:45.546Z,97774.23
2017-09-16T21:26:14.650Z,97774.49
2017-09-16T21:28:43.715Z,97772.69
2017-09-16T21:31:12.035Z,97769.33
2017-09-16T21:33:40.371Z,97767.95
2017-09-16T21:36:08.690Z,97764.81
2017-09-16T21:38:37.046Z,97757.52
2017-09-16T21:41:06.126Z,97765.02
2017-09-16T21:43:34.466Z,97764.55
2017-09-16T21:46:02.809Z,97767.02
2017-09-16T21:48:31.905Z,97763.98
2017-09-16T21:51:01.023Z,97758.41
2017-09-16T21:53:29.350Z,97772.08
2017-09-16T21:55:57.667Z,97771.27
2017-09-16T21:58:26.780Z,97765.61
2017-09-16T22:00:55.125Z,97769.44
2017-09-16T22:03:23.441Z,97765.96
2017-09-16T22:05:51.790Z,97758.41
2017-09-16T22:08:20.119Z,97763.94
2017-09-16T22:10:48.442Z,97772.16
2017-09-16T22:13:16.794Z,97769.67
2017-09-16T22:15:45.116Z,97765.86
2017-09-16T22:18:14.207Z,97758.91
2017-09-16T22:20:42.560Z,97768.92
2017-09-16T22:23:10.885Z,97765.95
2017-09-16T22:25:39.980Z,97767.55
2017-09-16T22:28:09.110Z,97762.78
2017-09-16T22:30:37.478Z,97756.27
2017-09-16T22:33:05.799Z,97755.36
2017-09-16T22:35:34.148Z,97767.86
2017-09-16T22:38:02.462Z,97771.77
2017-09-16T22:40:30.795Z,97770.88
2017-09-16T22:42:59.142Z,97766.55
2017-09-16T22:45:27.471Z,97771.17
2017-09-16T22:47:55.786Z,97775.81
2017-09-16T22:50:24.138Z,97780.43
2017-09-16T22:52:52.490Z,97775.56
2017-09-16T22:55:20.803Z,97775.53
2017-09-16T22:57:49.169Z,97776.61
2017-09-16T23:00:17.485Z,97784.11
2017-09-16T23:02:45.801Z,97786.27
2017-09-16T23:05:14.905Z,97774.65
2017-09-16T23:07:43.269Z,97773.30
2017-09-16T23:10:12.356Z,97774.19
2017-09-16T23:12:40.704Z,97780.52
2017-09-16T23:15:09.059Z,97779.34
2017-09-16T23:17:37.382Z,97779.36
2017-09-16T23:20:05.723Z,97778.41
2017-09-16T23:22:34.054Z,97776.42
2017-09-16T23:25:02.369Z,97775.63
2017-09-16T23:27:30.709Z,97774.91
2017-09-16T23:29:59.037Z,97780.04
2017-09-16T23:32:27.346Z,97781.73
2017-09-16T23:34:55.690Z,97778.69
2017-09-16T23:37:24.243Z,97785.88
2017-09-16T23:39:52.907Z,97787.50
2017-09-16T23:42:22.301Z,97783.28
2017-09-16T23:44:50.956Z,97779.88
2017-09-16T23:47:19.563Z,97781.92
2017-09-16T23:49:48.169Z,97778.92
2017-09-16T23:52:17.566Z,97782.37
2017-09-16T23:54:46.072Z,97740.06
2017-09-16T23:57:14.553Z,97780.91
2017-09-16T23:59:43.118Z,97773.56
